METAR AND TAF INFORMATION
METAR FOR LTFH
ADDS - METARS form results

(2129 UTC 26 May 2018)
Data provider http://aviationweather.gov/adds/metars/
 
METAR text: LTFH 262050Z 00000KT 9999 SCT036 BKN100 18/17 Q1013 NOSIG
Conditions at: LTFH (CARSAMBA , TR) observed 2050 UTC 26 May 2018
Temperature: 18.0°C (64°F)
Dewpoint: 17.0°C (63°F) [RH = 94%]
Pressure (altimeter): 29.91 inches Hg (1013.0 mb)
Winds: calm
Visibility: 6 or more miles (10+ km)
Ceiling: 10000 feet AGL
Clouds: scattered clouds at 3600 feet AGL
broken clouds at 10000 feet AGL
Weather: no significant weather observed at this time

 AIRPORT MAP

 RUNWAY INFORMATION
Runway 13 Runway length 9843 ft Runway width 148 ft
Runway elevation 10 ft Runway displaced threshold 0 ft Runway heading 134
Runway 31 Runway length 9843 ft Runway width 148 ft
Runway elevation 17 ft Runway displaced threshold 0 ft Runway heading 314

 AIRPORT FREQUENCIES
Type APP Name APP Frequency 118.175 MHZ
Type ATIS Name ATIS Frequency 129.35 MHZ
Type GND Name GND Frequency 121.7 MHZ
Type TWR Name TWR Frequency 118.35 MHZ

 AIRPORT NEAR NAVIGATION AIDS
Type NDB Name Carsamba Frequency 325 KHZ
Type VOR-DME Name Carsamba Frequency 112800 KHZ



Powered by Virtual Airlines Manager